createdAt,value
2022-08-19T00:00:36.607Z,4.10
2022-08-19T00:03:10.380Z,4.20
2022-08-19T00:05:41.545Z,4.30
2022-08-19T00:08:12.765Z,3.70
2022-08-19T00:10:43.839Z,4.40
2022-08-19T00:13:15.477Z,3.70
2022-08-19T00:15:46.578Z,3.80
2022-08-19T00:18:17.705Z,3.80
2022-08-19T00:20:49.757Z,4.50
2022-08-19T00:23:20.974Z,4.40
2022-08-19T00:25:53.131Z,4.60
2022-08-19T00:28:31.930Z,4.30
2022-08-19T00:31:04.070Z,4.00
2022-08-19T00:33:36.139Z,3.90
2022-08-19T00:36:10.419Z,3.70
2022-08-19T00:38:43.994Z,4.00
2022-08-19T00:41:18.469Z,4.40
2022-08-19T00:44:00.697Z,3.70
2022-08-19T00:46:32.517Z,3.80
2022-08-19T00:49:05.206Z,4.30
2022-08-19T00:51:36.475Z,4.30
2022-08-19T00:54:07.696Z,4.10
2022-08-19T00:56:39.796Z,3.70
2022-08-19T00:59:13.695Z,4.20
2022-08-19T01:02:04.916Z,4.50
2022-08-19T01:04:36.953Z,4.60
2022-08-19T01:07:08.352Z,4.60
2022-08-19T01:09:39.267Z,5.70
2022-08-19T01:12:11.057Z,5.50
2022-08-19T01:14:42.529Z,4.90
2022-08-19T01:17:15.029Z,4.80
2022-08-19T01:19:49.618Z,4.50
2022-08-19T01:22:30.224Z,4.60
2022-08-19T01:25:05.507Z,5.00
2022-08-19T01:27:47.111Z,4.60
2022-08-19T01:30:23.534Z,4.90
2022-08-19T01:32:55.554Z,5.00
2022-08-19T01:35:29.747Z,4.80
2022-08-19T01:38:04.224Z,4.80
2022-08-19T01:40:37.780Z,5.60
2022-08-19T01:43:08.858Z,4.40
2022-08-19T01:45:41.435Z,5.30
2022-08-19T01:48:12.998Z,4.70
2022-08-19T01:50:44.237Z,5.70
2022-08-19T01:53:15.854Z,4.80
2022-08-19T01:55:48.305Z,5.30
2022-08-19T01:58:24.852Z,5.10
2022-08-19T02:00:55.708Z,5.60
2022-08-19T02:03:27.251Z,6.20
2022-08-19T02:06:03.807Z,6.10
2022-08-19T02:08:38.588Z,5.50
2022-08-19T02:11:10.397Z,5.20
2022-08-19T02:13:41.612Z,5.50
2022-08-19T02:16:12.874Z,4.90
2022-08-19T02:18:43.857Z,5.20
2022-08-19T02:21:15.431Z,5.80
2022-08-19T02:23:47.164Z,6.20
2022-08-19T02:26:19.265Z,5.50
2022-08-19T02:28:50.663Z,5.70
2022-08-19T02:31:24.058Z,5.40
2022-08-19T02:33:58.184Z,5.70
2022-08-19T02:36:29.748Z,5.00
2022-08-19T02:39:01.408Z,5.10
2022-08-19T02:41:34.932Z,5.20
2022-08-19T02:44:22.854Z,5.20
2022-08-19T02:46:57.539Z,5.90
2022-08-19T02:49:30.152Z,6.00
2022-08-19T02:52:06.732Z,6.20
2022-08-19T02:54:38.583Z,5.80
2022-08-19T02:57:09.875Z,5.70
2022-08-19T02:59:41.071Z,5.80
2022-08-19T03:02:12.042Z,6.60
2022-08-19T03:04:43.320Z,6.00
2022-08-19T03:07:17.348Z,6.10
2022-08-19T03:09:48.496Z,5.90
2022-08-19T03:12:19.687Z,5.80
2022-08-19T03:14:50.466Z,6.20
2022-08-19T03:17:21.501Z,5.90
2022-08-19T03:19:52.986Z,6.40
2022-08-19T03:22:23.956Z,6.20
2022-08-19T03:24:55.508Z,5.60
2022-08-19T03:27:30.065Z,5.60
2022-08-19T03:30:07.893Z,5.70
2022-08-19T03:32:44.411Z,5.60
2022-08-19T03:35:17.197Z,4.90
2022-08-19T03:37:48.791Z,5.00
2022-08-19T03:40:20.026Z,5.10
2022-08-19T03:42:51.054Z,5.10
2022-08-19T03:45:22.204Z,6.20
2022-08-19T03:47:53.392Z,6.50
2022-08-19T03:50:25.843Z,5.60
2022-08-19T03:52:56.821Z,5.20
2022-08-19T03:55:27.731Z,5.50
2022-08-19T03:57:59.392Z,4.70
2022-08-19T04:00:30.625Z,4.40
2022-08-19T04:03:01.905Z,5.90
2022-08-19T04:05:32.917Z,6.10
2022-08-19T04:08:04.447Z,5.10
2022-08-19T04:10:39.338Z,5.00
2022-08-19T04:13:10.413Z,5.10
2022-08-19T04:15:45.991Z,5.90
2022-08-19T04:18:17.441Z,5.60
2022-08-19T04:20:49.756Z,5.50
2022-08-19T04:23:20.805Z,5.00
2022-08-19T04:25:52.310Z,5.10
2022-08-19T04:28:23.788Z,5.50
2022-08-19T04:30:56.806Z,4.40
2022-08-19T04:33:28.827Z,4.60
2022-08-19T04:36:01.031Z,4.90
2022-08-19T04:38:32.012Z,4.60
2022-08-19T04:41:22.375Z,5.10
2022-08-19T04:43:53.421Z,5.20
2022-08-19T04:46:39.129Z,5.00
2022-08-19T04:49:13.707Z,5.40
2022-08-19T04:51:48.251Z,4.90
2022-08-19T04:54:38.677Z,4.60
2022-08-19T04:57:11.574Z,5.40
2022-08-19T04:59:42.994Z,4.50
2022-08-19T05:02:13.963Z,5.00
2022-08-19T05:04:44.934Z,4.80
2022-08-19T05:07:16.072Z,4.90
2022-08-19T05:09:58.581Z,5.40
2022-08-19T05:15:01.818Z,5.20
2022-08-19T05:17:37.768Z,4.90
2022-08-19T05:20:29.178Z,5.30
2022-08-19T05:23:00.119Z,4.80
2022-08-19T05:25:31.500Z,5.00
2022-08-19T05:28:02.592Z,4.80
2022-08-19T05:30:46.773Z,5.50
2022-08-19T05:33:18.901Z,5.00
2022-08-19T05:35:50.492Z,4.60
2022-08-19T05:38:22.090Z,4.60
2022-08-19T05:40:53.228Z,4.70
2022-08-19T05:43:24.412Z,4.10
2022-08-19T05:45:55.405Z,4.10
2022-08-19T05:48:26.388Z,4.50
2022-08-19T05:50:57.978Z,4.60
2022-08-19T05:53:29.031Z,4.90
2022-08-19T05:56:00.253Z,4.70
2022-08-19T05:58:31.936Z,5.20
2022-08-19T06:01:06.297Z,4.30
2022-08-19T06:03:40.663Z,5.40
2022-08-19T06:06:14.374Z,4.30
2022-08-19T06:08:49.485Z,3.90
2022-08-19T06:11:23.957Z,4.10
2022-08-19T06:13:59.707Z,4.40
2022-08-19T06:19:08.680Z,4.00
2022-08-19T06:21:41.375Z,4.20
2022-08-19T06:24:16.087Z,4.00
2022-08-19T06:29:27.791Z,5.70
2022-08-19T06:32:01.532Z,5.20
2022-08-19T06:34:34.855Z,6.40
2022-08-19T06:37:06.834Z,6.40
2022-08-19T06:39:40.983Z,6.50
2022-08-19T06:42:17.500Z,6.00
2022-08-19T06:44:53.597Z,6.60
2022-08-19T06:47:28.659Z,6.90
2022-08-19T06:50:03.844Z,7.30
2022-08-19T06:55:09.235Z,7.20
2022-08-19T06:57:40.176Z,7.10
2022-08-19T07:00:14.951Z,7.30
2022-08-19T07:02:50.603Z,8.20
2022-08-19T07:05:26.843Z,8.50
2022-08-19T07:08:02.893Z,7.90
2022-08-19T07:10:37.513Z,8.40
2022-08-19T07:13:14.149Z,8.80
2022-08-19T07:15:47.401Z,7.60
2022-08-19T07:18:18.529Z,8.30
2022-08-19T07:20:49.866Z,7.20
2022-08-19T07:23:20.699Z,8.40
2022-08-19T07:25:54.642Z,8.70
2022-08-19T07:28:25.858Z,8.30
2022-08-19T07:30:58.624Z,8.00
2022-08-19T07:33:33.481Z,7.60
2022-08-19T07:36:04.639Z,7.80
2022-08-19T07:38:36.374Z,7.20
2022-08-19T07:41:07.728Z,7.80
2022-08-19T07:43:38.992Z,9.50
2022-08-19T07:51:36.746Z,8.60
2022-08-19T07:54:08.348Z,8.50
2022-08-19T07:56:40.890Z,8.70
2022-08-19T07:59:12.715Z,9.60
2022-08-19T08:01:43.749Z,10.30
2022-08-19T08:04:33.080Z,10.80
2022-08-19T08:07:31.353Z,12.30
2022-08-19T08:10:03.831Z,11.00
2022-08-19T08:12:42.286Z,9.90
2022-08-19T08:15:17.356Z,10.40
2022-08-19T08:17:51.741Z,11.40
2022-08-19T08:20:23.063Z,11.20
2022-08-19T08:23:11.780Z,9.80
2022-08-19T08:28:17.673Z,11.10
2022-08-19T08:30:50.706Z,10.30
2022-08-19T08:33:33.816Z,10.60
2022-08-19T08:36:10.006Z,11.10
2022-08-19T08:38:42.265Z,10.60
2022-08-19T08:41:21.420Z,10.20
2022-08-19T08:43:54.506Z,10.70
2022-08-19T08:46:32.703Z,9.90
2022-08-19T08:49:09.986Z,11.20
2022-08-19T08:51:47.498Z,10.20
2022-08-19T08:54:22.186Z,10.00
2022-08-19T08:56:55.923Z,10.10
2022-08-19T08:59:33.453Z,10.50
2022-08-19T09:02:07.383Z,9.40
2022-08-19T09:04:40.078Z,10.50
2022-08-19T09:07:35.433Z,10.90
2022-08-19T09:10:20.387Z,10.50
2022-08-19T09:13:01.065Z,11.30
2022-08-19T09:15:40.907Z,10.40
2022-08-19T09:18:19.383Z,11.60
2022-08-19T09:20:51.130Z,9.90
2022-08-19T09:23:27.065Z,11.10
2022-08-19T09:25:58.504Z,12.40
2022-08-19T09:28:30.378Z,11.30
2022-08-19T09:31:03.378Z,11.20
2022-08-19T09:33:34.272Z,11.70
2022-08-19T09:36:11.919Z,9.90
2022-08-19T09:38:43.804Z,11.80
2022-08-19T09:41:16.614Z,10.10
2022-08-19T09:43:53.205Z,12.40
2022-08-19T09:46:25.098Z,11.20
2022-08-19T09:48:57.855Z,10.50
2022-08-19T09:51:35.577Z,10.30
2022-08-19T09:54:07.450Z,10.60
2022-08-19T09:56:42.390Z,11.00
2022-08-19T09:59:14.194Z,11.60
2022-08-19T10:01:45.311Z,11.30
2022-08-19T10:04:20.539Z,11.60
2022-08-19T10:06:57.642Z,10.70
2022-08-19T10:09:34.472Z,10.10
2022-08-19T10:12:11.254Z,10.30
2022-08-19T10:14:42.347Z,10.40
2022-08-19T10:17:17.896Z,10.90
2022-08-19T10:19:55.444Z,9.50
2022-08-19T10:22:27.605Z,9.30
2022-08-19T10:24:58.624Z,10.60
2022-08-19T10:27:32.183Z,10.40
2022-08-19T10:30:03.559Z,12.10
2022-08-19T10:32:35.038Z,12.60
2022-08-19T10:35:09.198Z,11.20
2022-08-19T10:37:56.885Z,11.50
2022-08-19T10:40:29.303Z,11.50
2022-08-19T10:43:00.517Z,11.30
2022-08-19T10:45:31.386Z,12.10
2022-08-19T10:48:02.498Z,10.50
2022-08-19T10:50:51.052Z,12.50
2022-08-19T10:53:26.491Z,11.30
2022-08-19T10:56:15.289Z,12.40
2022-08-19T10:58:46.294Z,11.50
2022-08-19T11:01:17.343Z,13.20
2022-08-19T11:03:48.378Z,13.20
2022-08-19T11:06:20.571Z,12.30
2022-08-19T11:08:51.278Z,12.10
2022-08-19T11:11:22.937Z,13.10
2022-08-19T11:13:54.854Z,10.30
2022-08-19T11:16:30.665Z,11.40
2022-08-19T11:19:02.928Z,11.10
2022-08-19T11:21:38.262Z,11.90
2022-08-19T11:24:11.925Z,9.20
2022-08-19T11:26:44.718Z,10.40
2022-08-19T11:29:17.358Z,10.70
2022-08-19T11:31:50.448Z,10.80
2022-08-19T11:34:23.862Z,9.80
2022-08-19T11:36:58.237Z,10.90
2022-08-19T11:39:31.839Z,9.40
2022-08-19T11:42:03.715Z,8.40
2022-08-19T11:44:34.816Z,8.80
2022-08-19T11:47:08.750Z,8.90
2022-08-19T11:49:40.331Z,9.50
2022-08-19T11:52:11.843Z,8.70
2022-08-19T11:54:42.799Z,8.70
2022-08-19T11:57:18.035Z,7.90
2022-08-19T11:59:53.798Z,9.40
2022-08-19T12:02:24.736Z,8.10
2022-08-19T12:04:56.082Z,8.90
2022-08-19T12:07:27.279Z,8.10
2022-08-19T12:09:58.433Z,7.90
2022-08-19T12:12:30.072Z,7.40
2022-08-19T12:15:01.128Z,7.70
2022-08-19T12:17:32.755Z,8.10
2022-08-19T12:20:04.209Z,8.90
2022-08-19T12:22:36.037Z,7.70
2022-08-19T12:25:08.081Z,7.50
2022-08-19T12:27:40.639Z,8.00
2022-08-19T12:30:15.540Z,7.40
2022-08-19T12:32:46.660Z,7.50
2022-08-19T12:35:18.755Z,7.20
2022-08-19T12:37:56.986Z,7.00
2022-08-19T12:40:28.832Z,7.80
2022-08-19T12:43:00.419Z,7.60
2022-08-19T12:45:31.459Z,7.80
2022-08-19T12:48:32.880Z,7.40
2022-08-19T12:50:55.413Z,7.50
2022-08-19T12:53:27.032Z,7.40
2022-08-19T12:56:01.540Z,7.40
2022-08-19T12:58:33.426Z,7.40
2022-08-19T13:01:10.467Z,6.90
2022-08-19T13:03:41.863Z,6.50
2022-08-19T13:06:13.309Z,6.60
2022-08-19T13:08:44.189Z,6.40
2022-08-19T13:11:20.819Z,6.50
2022-08-19T13:13:53.277Z,6.50
2022-08-19T13:16:24.572Z,6.20
2022-08-19T13:18:55.931Z,6.20
2022-08-19T13:21:31.043Z,7.60
2022-08-19T13:24:02.252Z,6.70
2022-08-19T13:26:34.135Z,7.00
2022-08-19T13:29:22.312Z,7.10
2022-08-19T13:32:11.243Z,6.70
2022-08-19T13:34:49.335Z,6.60
2022-08-19T13:37:41.091Z,6.60
2022-08-19T13:40:25.412Z,6.30
2022-08-19T13:42:57.521Z,6.80
2022-08-19T13:45:33.822Z,6.60
2022-08-19T13:48:11.224Z,7.20
2022-08-19T13:50:45.391Z,6.40
2022-08-19T13:53:16.433Z,7.00
2022-08-19T13:55:47.632Z,6.90
2022-08-19T13:58:18.733Z,6.20
2022-08-19T14:00:50.793Z,6.30
2022-08-19T14:03:22.037Z,6.10
2022-08-19T14:05:53.872Z,6.70
2022-08-19T14:08:25.147Z,6.60
2022-08-19T14:10:59.038Z,6.30
2022-08-19T14:13:37.273Z,6.00
2022-08-19T14:16:13.307Z,5.60
2022-08-19T14:18:46.070Z,6.00
2022-08-19T14:21:25.550Z,5.60
2022-08-19T14:23:56.809Z,6.70
2022-08-19T14:26:27.954Z,6.50
2022-08-19T14:28:59.073Z,6.00
2022-08-19T14:31:30.959Z,5.90
2022-08-19T14:34:03.641Z,5.80
2022-08-19T14:36:39.103Z,6.10
2022-08-19T14:39:10.735Z,5.40
2022-08-19T14:41:44.102Z,6.30
2022-08-19T14:44:15.570Z,6.50
2022-08-19T14:46:49.490Z,6.20
2022-08-19T14:49:20.889Z,6.30
2022-08-19T14:52:00.632Z,5.90
2022-08-19T14:54:31.810Z,6.70
2022-08-19T14:57:02.827Z,6.30
2022-08-19T14:59:34.023Z,6.10
2022-08-19T15:02:34.278Z,5.70
2022-08-19T15:04:58.494Z,7.20
2022-08-19T15:07:30.491Z,7.70
2022-08-19T15:10:02.129Z,8.50
2022-08-19T15:12:33.315Z,6.20
2022-08-19T15:15:05.700Z,6.20
2022-08-19T15:17:45.502Z,7.10
2022-08-19T15:20:26.340Z,6.20
2022-08-19T15:22:57.575Z,5.80
2022-08-19T15:25:29.446Z,6.50
2022-08-19T15:28:01.914Z,6.10
2022-08-19T15:30:34.313Z,6.20
2022-08-19T15:33:06.160Z,6.50
2022-08-19T15:35:37.140Z,6.40
2022-08-19T15:38:08.834Z,6.90
2022-08-19T15:40:40.091Z,6.60
2022-08-19T15:43:11.577Z,6.90
2022-08-19T15:45:46.253Z,6.80
2022-08-19T15:48:19.860Z,6.70
2022-08-19T15:50:51.036Z,6.30
2022-08-19T15:53:22.095Z,6.10
2022-08-19T15:55:52.951Z,6.30
2022-08-19T15:58:41.377Z,6.10
2022-08-19T16:01:29.774Z,6.20
2022-08-19T16:04:22.275Z,6.10
2022-08-19T16:06:57.595Z,5.80
2022-08-19T16:09:31.230Z,7.10
2022-08-19T16:12:05.124Z,6.40
2022-08-19T16:14:38.131Z,6.40
2022-08-19T16:17:11.671Z,6.40
2022-08-19T16:19:42.624Z,6.20
2022-08-19T16:22:13.472Z,7.00
2022-08-19T16:24:45.322Z,7.00
2022-08-19T16:27:16.620Z,6.70
2022-08-19T16:29:47.544Z,6.10
2022-08-19T16:32:19.511Z,6.40
2022-08-19T16:34:50.570Z,6.00
2022-08-19T16:37:21.740Z,7.20
2022-08-19T16:39:54.603Z,6.40
2022-08-19T16:42:25.807Z,6.30
2022-08-19T16:44:57.763Z,6.40
2022-08-19T16:47:28.921Z,6.40
2022-08-19T16:50:00.144Z,6.20
2022-08-19T16:52:32.190Z,6.50
2022-08-19T16:55:03.255Z,6.70
2022-08-19T16:57:34.725Z,6.80
2022-08-19T17:00:09.609Z,6.60
2022-08-19T17:02:40.852Z,6.30
2022-08-19T17:05:12.422Z,5.90
2022-08-19T17:07:43.693Z,6.40
2022-08-19T17:10:16.464Z,7.10
2022-08-19T17:12:47.478Z,5.80
2022-08-19T17:15:18.405Z,7.40
2022-08-19T17:17:49.371Z,7.50
2022-08-19T17:20:20.667Z,6.60
2022-08-19T17:22:51.535Z,7.70
2022-08-19T17:25:23.266Z,6.70
2022-08-19T17:27:54.715Z,6.80
2022-08-19T17:30:27.030Z,6.70
2022-08-19T17:32:58.027Z,7.10
2022-08-19T17:35:29.085Z,6.50
2022-08-19T17:38:04.648Z,7.40
2022-08-19T17:40:36.188Z,6.90
2022-08-19T17:43:07.963Z,7.00
2022-08-19T17:45:40.346Z,6.60
2022-08-19T17:48:12.479Z,6.90
2022-08-19T17:50:43.576Z,8.50
2022-08-19T17:53:16.270Z,7.60
2022-08-19T17:55:47.997Z,7.90
2022-08-19T17:58:19.479Z,7.80
2022-08-19T18:00:55.516Z,7.20
2022-08-19T18:03:30.502Z,7.90
2022-08-19T18:06:01.468Z,7.60
2022-08-19T18:08:38.919Z,8.70
2022-08-19T18:11:10.944Z,9.00
2022-08-19T18:13:41.871Z,9.90
2022-08-19T18:16:13.592Z,10.50
2022-08-19T18:18:44.879Z,10.90
2022-08-19T18:21:16.817Z,9.90
2022-08-19T18:23:47.730Z,10.20
2022-08-19T18:26:18.853Z,8.70
2022-08-19T18:28:51.763Z,9.60
2022-08-19T18:31:23.819Z,9.70
2022-08-19T18:33:54.831Z,9.50
2022-08-19T18:36:52.037Z,10.00
2022-08-19T18:39:34.794Z,8.60
2022-08-19T18:42:31.943Z,8.60
2022-08-19T18:45:21.044Z,8.20
2022-08-19T18:48:24.183Z,7.70
2022-08-19T18:51:00.873Z,8.20
2022-08-19T18:53:34.371Z,7.80
2022-08-19T18:56:05.659Z,8.00
2022-08-19T18:58:37.680Z,8.10
2022-08-19T19:01:13.717Z,8.90
2022-08-19T19:06:19.951Z,7.00
2022-08-19T19:08:51.613Z,7.70
2022-08-19T19:11:26.213Z,8.20
2022-08-19T19:13:58.080Z,6.80
2022-08-19T19:16:29.379Z,7.70
2022-08-19T19:19:01.264Z,7.40
2022-08-19T19:21:34.602Z,6.50
2022-08-19T19:24:09.045Z,6.80
2022-08-19T19:26:39.880Z,6.70
2022-08-19T19:29:13.347Z,7.00
2022-08-19T19:31:46.348Z,6.80
2022-08-19T19:34:29.749Z,6.50
2022-08-19T19:37:01.527Z,6.70
2022-08-19T19:39:45.902Z,7.20
2022-08-19T19:42:22.728Z,6.40
2022-08-19T19:44:55.973Z,6.70
2022-08-19T19:47:28.182Z,6.50
2022-08-19T19:50:15.976Z,19.10
2022-08-19T19:52:48.270Z,6.20
2022-08-19T19:55:19.593Z,9.00
2022-08-19T19:57:53.615Z,6.20
2022-08-19T20:00:25.718Z,6.20
2022-08-19T20:02:56.921Z,6.50
2022-08-19T20:05:28.059Z,6.10
2022-08-19T20:08:16.260Z,5.60
2022-08-19T20:10:49.701Z,5.40
2022-08-19T20:13:21.776Z,6.80
2022-08-19T20:15:53.014Z,7.20
2022-08-19T20:18:24.501Z,6.80
2022-08-19T20:20:55.540Z,6.90
2022-08-19T20:23:26.749Z,6.60
2022-08-19T20:25:57.923Z,6.90
2022-08-19T20:28:30.152Z,6.40
2022-08-19T20:31:00.992Z,6.70
2022-08-19T20:33:32.343Z,7.50
2022-08-19T20:36:04.145Z,7.20
2022-08-19T20:38:35.382Z,7.20
2022-08-19T20:41:07.207Z,7.90
2022-08-19T20:43:38.670Z,7.50
2022-08-19T20:46:09.527Z,6.90
2022-08-19T20:48:42.379Z,7.10
2022-08-19T20:51:14.872Z,8.10
2022-08-19T20:53:46.345Z,8.10
2022-08-19T20:56:17.177Z,7.50
2022-08-19T20:58:53.463Z,7.90
2022-08-19T21:01:26.803Z,7.90
2022-08-19T21:03:58.098Z,7.50
2022-08-19T21:06:29.620Z,7.80
2022-08-19T21:09:00.771Z,7.70
2022-08-19T21:11:32.353Z,7.90
2022-08-19T21:14:03.734Z,7.80
2022-08-19T21:16:34.713Z,8.20
2022-08-19T21:19:06.560Z,7.40
2022-08-19T21:21:37.788Z,7.60
2022-08-19T21:24:09.168Z,6.90
2022-08-19T21:26:40.315Z,7.80
2022-08-19T21:29:11.199Z,7.10
2022-08-19T21:31:42.156Z,7.80
2022-08-19T21:34:13.420Z,8.30
2022-08-19T21:36:44.220Z,7.60
2022-08-19T21:39:15.280Z,8.10
2022-08-19T21:41:46.288Z,7.70
2022-08-19T21:44:17.381Z,8.00
2022-08-19T21:46:50.395Z,8.00
2022-08-19T21:49:22.499Z,7.30
2022-08-19T21:51:53.821Z,7.20
2022-08-19T21:54:24.786Z,7.80
2022-08-19T21:56:55.892Z,7.90
2022-08-19T21:59:27.156Z,7.90
2022-08-19T22:02:15.704Z,7.70
2022-08-19T22:04:49.651Z,7.50
2022-08-19T22:07:22.705Z,8.20
2022-08-19T22:09:53.842Z,8.10
2022-08-19T22:12:27.129Z,8.00
2022-08-19T22:15:00.103Z,8.40
2022-08-19T22:17:33.225Z,7.20
2022-08-19T22:20:05.902Z,7.20
2022-08-19T22:22:38.039Z,8.30
2022-08-19T22:25:31.173Z,8.50
2022-08-19T22:28:04.728Z,8.90
2022-08-19T22:30:39.057Z,8.30
2022-08-19T22:33:17.269Z,8.40
2022-08-19T22:35:49.527Z,7.80
2022-08-19T22:38:20.409Z,7.90
2022-08-19T22:40:53.129Z,8.60
2022-08-19T22:43:26.232Z,8.30
2022-08-19T22:45:58.759Z,8.20
2022-08-19T22:48:32.670Z,7.70
2022-08-19T22:51:21.665Z,8.00
2022-08-19T22:53:52.534Z,8.00
2022-08-19T22:56:24.499Z,7.90
2022-08-19T22:58:55.915Z,8.50
2022-08-19T23:01:30.579Z,9.10
2022-08-19T23:04:03.842Z,9.40
2022-08-19T23:06:39.132Z,8.40
2022-08-19T23:09:16.861Z,8.50
2022-08-19T23:11:49.164Z,7.90
2022-08-19T23:14:20.187Z,7.70
2022-08-19T23:16:52.845Z,7.80
2022-08-19T23:19:26.905Z,8.50
2022-08-19T23:21:57.942Z,9.50
2022-08-19T23:24:29.154Z,8.80
2022-08-19T23:27:17.477Z,8.50
2022-08-19T23:30:05.896Z,8.30
2022-08-19T23:32:38.258Z,7.60
2022-08-19T23:35:10.065Z,8.60
2022-08-19T23:37:41.168Z,7.50
2022-08-19T23:40:13.090Z,8.30
2022-08-19T23:42:46.643Z,9.20
2022-08-19T23:45:23.591Z,8.20
2022-08-19T23:47:56.105Z,8.20
2022-08-19T23:50:27.836Z,7.80
2022-08-19T23:53:01.677Z,7.70
2022-08-19T23:55:36.914Z,8.10
2022-08-19T23:58:09.029Z,8.00
